Terminal Aerodrome Forecast
Issued by NWS Jackson, MS

Home | Current Version | Previous Version | Text Only | Print | Product List | Glossary On
Versions: 1 2 3 4 5 6 7 8 9 10 11 12 13 14 15 16 17 18 19 20
974
FTUS44 KMEG 080523
TAFTUP
TAF
KTUP 080523Z 0806/0906 32006KT P6SM FEW060 OVC080
     FM080800 02009KT P6SM OVC080
     FM081500 02013KT P6SM BKN250
     FM090000 01007KT P6SM BKN250=

USA.gov is the U.S. government's official web portal to all federal, state and local government web resources and services.